createdAt,value
2023-05-14T00:01:42.986Z,15.70
2023-05-14T00:04:12.844Z,15.80
2023-05-14T00:06:41.267Z,15.80
2023-05-14T00:09:09.793Z,15.80
2023-05-14T00:11:38.297Z,15.80
2023-05-14T00:14:06.886Z,15.80
2023-05-14T00:16:35.416Z,15.80
2023-05-14T00:19:03.969Z,15.80
2023-05-14T00:21:33.933Z,15.80
2023-05-14T00:24:02.356Z,15.80
2023-05-14T00:26:30.842Z,15.80
2023-05-14T00:28:59.278Z,15.90
2023-05-14T00:31:27.746Z,15.90
2023-05-14T00:33:56.252Z,15.80
2023-05-14T00:36:24.675Z,15.90
2023-05-14T00:38:54.576Z,15.90
2023-05-14T00:41:23.755Z,15.90
2023-05-14T00:43:52.399Z,15.90
2023-05-14T00:46:21.143Z,15.80
2023-05-14T00:48:49.790Z,15.80
2023-05-14T00:51:19.209Z,15.80
2023-05-14T00:53:47.886Z,15.70
2023-05-14T00:56:17.970Z,15.70
2023-05-14T00:58:46.483Z,15.80
2023-05-14T01:01:15.358Z,15.70
2023-05-14T01:03:44.324Z,15.70
2023-05-14T01:06:16.279Z,15.70
2023-05-14T01:08:48.225Z,15.70
2023-05-14T01:11:21.500Z,15.70
2023-05-14T01:13:53.835Z,15.70
2023-05-14T01:16:23.357Z,15.70
2023-05-14T01:18:52.143Z,15.60
2023-05-14T01:21:34.318Z,15.60
2023-05-14T01:24:02.792Z,15.60
2023-05-14T01:26:31.698Z,15.60
2023-05-14T01:29:03.058Z,15.60
2023-05-14T01:31:32.862Z,15.70
2023-05-14T01:34:02.189Z,15.70
2023-05-14T01:36:33.085Z,15.70
2023-05-14T01:39:01.927Z,15.70
2023-05-14T01:41:30.850Z,15.70
2023-05-14T01:43:59.407Z,15.70
2023-05-14T01:46:27.910Z,15.70
2023-05-14T01:48:56.327Z,15.70
2023-05-14T01:51:24.863Z,15.70
2023-05-14T01:53:54.904Z,15.70
2023-05-14T01:56:25.899Z,15.70
2023-05-14T01:58:55.666Z,15.70
2023-05-14T02:01:26.240Z,15.70
2023-05-14T02:03:54.762Z,15.80
2023-05-14T02:06:23.202Z,15.80
2023-05-14T02:08:51.692Z,15.80
2023-05-14T02:11:22.031Z,15.80
2023-05-14T02:13:50.475Z,15.80
2023-05-14T02:16:19.362Z,15.80
2023-05-14T02:18:48.034Z,15.70
2023-05-14T02:21:16.569Z,15.70
2023-05-14T02:23:45.019Z,15.70
2023-05-14T02:26:13.493Z,15.70
2023-05-14T02:28:43.330Z,15.70
2023-05-14T02:31:11.886Z,15.70
2023-05-14T02:33:40.414Z,15.70
2023-05-14T02:36:09.052Z,15.70
2023-05-14T02:38:37.480Z,15.70
2023-05-14T02:41:05.902Z,15.70
2023-05-14T02:43:34.383Z,15.70
2023-05-14T02:46:04.262Z,15.80
2023-05-14T02:48:32.640Z,15.70
2023-05-14T02:51:01.246Z,15.70
2023-05-14T02:53:29.692Z,15.70
2023-05-14T02:55:58.213Z,15.70
2023-05-14T02:58:28.272Z,15.70
2023-05-14T03:00:57.191Z,15.70
2023-05-14T03:03:27.677Z,15.80
2023-05-14T03:05:56.586Z,15.70
2023-05-14T03:08:25.124Z,15.70
2023-05-14T03:10:53.554Z,15.70
2023-05-14T03:13:22.125Z,15.70
2023-05-14T03:15:54.901Z,15.70
2023-05-14T03:18:24.071Z,15.70
2023-05-14T03:20:54.028Z,15.70
2023-05-14T03:23:22.458Z,15.70
2023-05-14T03:25:51.111Z,15.70
2023-05-14T03:28:19.532Z,15.80
2023-05-14T03:30:48.066Z,15.80
2023-05-14T03:33:16.498Z,15.80
2023-05-14T03:35:44.979Z,15.80
2023-05-14T03:38:14.965Z,15.80
2023-05-14T03:40:43.449Z,15.80
2023-05-14T03:43:11.860Z,15.80
2023-05-14T03:45:41.543Z,15.80
2023-05-14T03:48:10.008Z,15.70
2023-05-14T03:50:38.547Z,15.80
2023-05-14T03:53:07.090Z,15.70
2023-05-14T03:55:37.053Z,15.70
2023-05-14T03:58:07.473Z,15.70
2023-05-14T04:00:35.874Z,15.70
2023-05-14T04:03:04.388Z,15.70
2023-05-14T04:05:32.862Z,15.70
2023-05-14T04:08:01.691Z,15.60
2023-05-14T04:10:30.216Z,15.60
2023-05-14T04:13:00.219Z,15.60
2023-05-14T04:15:28.636Z,15.60
2023-05-14T04:17:57.159Z,15.70
2023-05-14T04:20:25.895Z,15.70
2023-05-14T04:22:54.951Z,15.60
2023-05-14T04:25:24.171Z,15.60
2023-05-14T04:27:52.557Z,15.60
2023-05-14T04:30:23.045Z,15.60
2023-05-14T04:32:51.693Z,15.60
2023-05-14T04:35:22.654Z,15.60
2023-05-14T04:37:52.565Z,15.60
2023-05-14T04:40:21.136Z,15.60
2023-05-14T04:42:49.644Z,15.60
2023-05-14T04:45:18.139Z,15.70
2023-05-14T04:47:48.144Z,15.60
2023-05-14T04:50:16.718Z,15.60
2023-05-14T04:52:45.140Z,15.70
2023-05-14T04:55:13.688Z,15.70
2023-05-14T04:57:42.119Z,15.70
2023-05-14T05:00:11.326Z,15.70
2023-05-14T05:02:39.878Z,15.70
2023-05-14T05:05:10.257Z,15.80
2023-05-14T05:07:38.686Z,15.70
2023-05-14T05:10:07.887Z,15.80
2023-05-14T05:12:36.449Z,15.80
2023-05-14T05:15:05.058Z,15.80
2023-05-14T05:17:33.609Z,15.90
2023-05-14T05:20:02.072Z,15.90
2023-05-14T05:22:32.084Z,15.90
2023-05-14T05:25:00.705Z,15.90
2023-05-14T05:27:29.121Z,15.90
2023-05-14T05:29:57.615Z,15.90
2023-05-14T05:32:26.185Z,15.90
2023-05-14T05:34:54.683Z,15.90
2023-05-14T05:37:23.224Z,15.90
2023-05-14T05:39:54.007Z,15.90
2023-05-14T05:42:22.573Z,15.90
2023-05-14T05:44:50.983Z,15.90
2023-05-14T05:47:19.584Z,15.90
2023-05-14T05:49:47.987Z,16.00
2023-05-14T05:52:16.418Z,15.90
2023-05-14T05:54:44.881Z,15.90
2023-05-14T05:57:14.713Z,15.90
2023-05-14T05:59:43.190Z,15.90
2023-05-14T06:02:11.738Z,15.90
2023-05-14T06:04:40.335Z,15.90
2023-05-14T06:07:08.814Z,15.90
2023-05-14T06:09:37.703Z,15.90
2023-05-14T06:12:06.728Z,16.00
2023-05-14T06:14:36.688Z,16.00
2023-05-14T06:17:05.339Z,16.00
2023-05-14T06:19:34.167Z,16.00
2023-05-14T06:22:02.906Z,16.00
2023-05-14T06:24:31.387Z,16.00
2023-05-14T06:26:59.759Z,16.10
2023-05-14T06:29:28.158Z,16.10
2023-05-14T06:31:58.591Z,16.10
2023-05-14T06:34:27.088Z,16.00
2023-05-14T06:36:55.570Z,16.00
2023-05-14T06:39:24.254Z,16.00
2023-05-14T06:41:52.650Z,16.00
2023-05-14T06:44:21.115Z,16.00
2023-05-14T06:46:49.710Z,16.10
2023-05-14T06:49:19.721Z,16.10
2023-05-14T06:51:48.484Z,16.00
2023-05-14T06:54:17.250Z,16.00
2023-05-14T06:56:46.142Z,16.10
2023-05-14T06:59:14.671Z,16.10
2023-05-14T07:01:43.182Z,16.10
2023-05-14T07:04:11.722Z,16.20
2023-05-14T07:06:41.600Z,16.10
2023-05-14T07:09:10.480Z,16.20
2023-05-14T07:11:38.888Z,16.20
2023-05-14T07:14:07.347Z,16.10
2023-05-14T07:16:36.128Z,16.10
2023-05-14T07:19:04.812Z,16.00
2023-05-14T07:21:33.236Z,16.00
2023-05-14T07:24:03.281Z,16.10
2023-05-14T07:26:31.758Z,16.20
2023-05-14T07:29:00.308Z,16.30
2023-05-14T07:31:28.860Z,16.30
2023-05-14T07:33:57.489Z,16.30
2023-05-14T07:36:26.511Z,16.40
2023-05-14T07:38:54.961Z,16.40
2023-05-14T07:41:24.836Z,16.30
2023-05-14T07:43:53.391Z,16.40
2023-05-14T07:46:21.970Z,16.30
2023-05-14T07:48:50.405Z,16.50
2023-05-14T07:51:18.935Z,16.40
2023-05-14T07:53:47.391Z,16.30
2023-05-14T07:56:16.034Z,16.30
2023-05-14T07:58:46.174Z,16.30
2023-05-14T08:01:14.706Z,16.30
2023-05-14T08:03:43.350Z,16.40
2023-05-14T08:06:11.858Z,16.40
2023-05-14T08:08:40.465Z,16.50
2023-05-14T08:11:08.887Z,16.50
2023-05-14T08:13:37.433Z,16.60
2023-05-14T08:16:07.870Z,16.50
2023-05-14T08:18:36.387Z,16.60
2023-05-14T08:21:04.854Z,16.50
2023-05-14T08:23:33.231Z,16.60
2023-05-14T08:26:01.673Z,16.60
2023-05-14T08:28:30.139Z,16.60
2023-05-14T08:30:58.674Z,16.50
2023-05-14T08:33:28.622Z,16.40
2023-05-14T08:35:58.475Z,16.50
2023-05-14T08:38:26.978Z,16.30
2023-05-14T08:40:57.878Z,16.40
2023-05-14T08:43:27.831Z,16.30
2023-05-14T08:45:58.992Z,16.40
2023-05-14T08:48:30.792Z,16.40
2023-05-14T08:51:00.434Z,16.40
2023-05-14T08:53:28.819Z,16.60
2023-05-14T08:55:57.449Z,16.60
2023-05-14T08:58:27.737Z,16.70
2023-05-14T09:00:56.254Z,16.80
2023-05-14T09:03:25.092Z,16.90
2023-05-14T09:05:55.052Z,17.10
2023-05-14T09:08:23.447Z,17.10
2023-05-14T09:10:51.930Z,17.30
2023-05-14T09:13:20.279Z,17.30
2023-05-14T09:15:49.335Z,17.50
2023-05-14T09:18:18.618Z,17.30
2023-05-14T09:20:48.007Z,17.40
2023-05-14T09:23:17.827Z,17.30
2023-05-14T09:25:46.248Z,17.20
2023-05-14T09:28:18.211Z,17.10
2023-05-14T09:30:49.338Z,17.10
2023-05-14T09:33:26.634Z,17.20
2023-05-14T09:35:58.309Z,17.40
2023-05-14T09:38:31.050Z,17.50
2023-05-14T09:40:59.923Z,17.70
2023-05-14T09:43:28.447Z,17.80
2023-05-14T09:45:56.999Z,17.90
2023-05-14T09:48:26.184Z,18.20
2023-05-14T09:50:54.803Z,18.10
2023-05-14T09:53:23.219Z,18.20
2023-05-14T09:55:53.116Z,18.20
2023-05-14T09:58:21.601Z,18.30
2023-05-14T10:00:50.223Z,18.40
2023-05-14T10:03:20.018Z,18.50
2023-05-14T10:05:50.351Z,18.60
2023-05-14T10:08:21.789Z,18.80
2023-05-14T10:10:51.825Z,18.90
2023-05-14T10:13:23.351Z,18.80
2023-05-14T10:15:58.202Z,18.80
2023-05-14T10:18:27.805Z,19.00
2023-05-14T10:21:01.943Z,19.10
2023-05-14T10:23:30.928Z,19.10
2023-05-14T10:25:59.567Z,19.10
2023-05-14T10:28:29.677Z,19.10
2023-05-14T10:31:00.662Z,19.20
2023-05-14T10:33:29.534Z,19.30
2023-05-14T10:35:59.105Z,19.20
2023-05-14T10:38:28.404Z,19.20
2023-05-14T10:41:06.473Z,19.10
2023-05-14T10:43:39.408Z,19.00
2023-05-14T10:46:08.774Z,18.80
2023-05-14T10:48:37.882Z,19.00
2023-05-14T10:51:08.366Z,18.70
2023-05-14T10:53:37.634Z,18.60
2023-05-14T10:56:07.434Z,18.30
2023-05-14T10:58:40.266Z,18.20
2023-05-14T11:01:09.354Z,18.20
2023-05-14T11:03:41.582Z,18.10
2023-05-14T11:06:10.332Z,18.10
2023-05-14T11:08:39.061Z,18.20
2023-05-14T11:11:07.709Z,18.20
2023-05-14T11:13:36.604Z,18.20
2023-05-14T11:18:41.969Z,18.30
2023-05-14T11:21:10.625Z,18.40
2023-05-14T11:23:39.130Z,18.40
2023-05-14T11:26:08.310Z,18.40
2023-05-14T11:28:36.785Z,18.50
2023-05-14T11:31:06.938Z,18.60
2023-05-14T11:33:35.379Z,18.80
2023-05-14T11:36:03.870Z,18.90
2023-05-14T11:38:32.308Z,18.80
2023-05-14T11:41:00.743Z,18.80
2023-05-14T11:43:29.666Z,18.80
2023-05-14T11:45:58.077Z,18.40
2023-05-14T11:48:28.017Z,18.20
2023-05-14T11:50:56.613Z,18.10
2023-05-14T11:53:26.667Z,18.10
2023-05-14T11:55:55.571Z,18.00
2023-05-14T11:58:24.005Z,17.80
2023-05-14T12:00:52.740Z,17.90
2023-05-14T12:03:25.863Z,17.90
2023-05-14T12:05:59.602Z,17.80
2023-05-14T12:08:28.828Z,17.70
2023-05-14T12:10:57.489Z,17.80
2023-05-14T12:13:28.674Z,17.80
2023-05-14T12:15:57.882Z,17.90
2023-05-14T12:18:27.113Z,18.00
2023-05-14T12:20:55.757Z,18.10
2023-05-14T12:23:28.999Z,18.20
2023-05-14T12:26:02.226Z,18.20
2023-05-14T12:28:30.787Z,18.30
2023-05-14T12:30:59.766Z,18.30
2023-05-14T12:33:28.616Z,18.30
2023-05-14T12:36:07.370Z,18.40
2023-05-14T12:38:44.822Z,18.40
2023-05-14T12:41:13.248Z,18.20
2023-05-14T12:43:42.195Z,18.10
2023-05-14T12:46:10.731Z,18.20
2023-05-14T12:48:39.249Z,18.20
2023-05-14T12:51:07.725Z,18.20
2023-05-14T12:53:36.280Z,18.40
2023-05-14T12:56:07.047Z,18.30
2023-05-14T12:58:35.662Z,18.40
2023-05-14T13:01:04.411Z,18.60
2023-05-14T13:03:32.918Z,18.60
2023-05-14T13:06:01.360Z,18.50
2023-05-14T13:08:29.716Z,18.60
2023-05-14T13:10:58.215Z,18.60
2023-05-14T13:13:28.196Z,18.70
2023-05-14T13:15:56.650Z,18.70
2023-05-14T13:18:26.613Z,18.70
2023-05-14T13:20:55.101Z,18.70
2023-05-14T13:23:23.529Z,18.80
2023-05-14T13:25:52.068Z,18.60
2023-05-14T13:28:20.648Z,18.60
2023-05-14T13:33:46.051Z,18.50
2023-05-14T13:36:16.003Z,18.50
2023-05-14T13:38:45.859Z,18.40
2023-05-14T13:41:14.361Z,18.50
2023-05-14T13:43:42.867Z,18.50
2023-05-14T13:46:11.353Z,18.60
2023-05-14T13:48:39.824Z,18.60
2023-05-14T13:51:09.753Z,18.50
2023-05-14T13:53:38.384Z,18.40
2023-05-14T13:56:08.716Z,18.40
2023-05-14T13:58:37.216Z,18.30
2023-05-14T14:01:05.946Z,18.30
2023-05-14T14:03:34.484Z,18.40
2023-05-14T14:06:03.172Z,18.30
2023-05-14T14:08:33.067Z,18.00
2023-05-14T14:11:01.506Z,17.90
2023-05-14T14:13:30.329Z,17.80
2023-05-14T14:15:58.846Z,17.70
2023-05-14T14:18:27.699Z,17.60
2023-05-14T14:20:56.146Z,17.60
2023-05-14T14:23:24.613Z,17.60
2023-05-14T14:25:54.449Z,17.60
2023-05-14T14:28:22.896Z,17.60
2023-05-14T14:30:51.471Z,17.70
2023-05-14T14:33:19.893Z,17.60
2023-05-14T14:35:48.284Z,17.60
2023-05-14T14:38:16.726Z,17.60
2023-05-14T14:40:46.259Z,17.60
2023-05-14T14:43:16.589Z,17.60
2023-05-14T14:45:48.242Z,17.60
2023-05-14T14:48:24.770Z,17.50
2023-05-14T14:50:53.575Z,17.40
2023-05-14T14:53:22.367Z,17.40
2023-05-14T14:55:51.101Z,17.30
2023-05-14T14:58:21.502Z,17.30
2023-05-14T15:00:50.479Z,17.30
2023-05-14T15:03:19.502Z,17.20
2023-05-14T15:05:48.251Z,17.20
2023-05-14T15:08:16.689Z,17.30
2023-05-14T15:10:45.881Z,17.20
2023-05-14T15:13:14.380Z,17.10
2023-05-14T15:15:44.289Z,17.10
2023-05-14T15:18:12.857Z,17.20
2023-05-14T15:20:41.434Z,17.20
2023-05-14T15:23:11.528Z,17.20
2023-05-14T15:25:40.469Z,17.10
2023-05-14T15:28:08.966Z,17.10
2023-05-14T15:30:37.479Z,17.00
2023-05-14T15:33:08.556Z,17.00
2023-05-14T15:35:37.024Z,17.00
2023-05-14T15:38:05.626Z,16.90
2023-05-14T15:40:35.070Z,16.90
2023-05-14T15:43:03.451Z,17.00
2023-05-14T15:45:31.873Z,16.80
2023-05-14T15:48:00.357Z,16.90
2023-05-14T15:50:30.310Z,16.90
2023-05-14T15:52:58.872Z,16.80
2023-05-14T15:55:27.348Z,16.90
2023-05-14T15:57:55.932Z,17.00
2023-05-14T16:00:25.123Z,16.90
2023-05-14T16:02:53.860Z,16.90
2023-05-14T16:05:22.759Z,16.90
2023-05-14T16:07:53.427Z,16.90
2023-05-14T16:10:22.525Z,17.10
2023-05-14T16:12:51.214Z,17.10
2023-05-14T16:15:19.734Z,17.10
2023-05-14T16:17:48.221Z,17.10
2023-05-14T16:20:16.725Z,16.90
2023-05-14T16:22:45.230Z,16.90
2023-05-14T16:25:15.203Z,16.90
2023-05-14T16:27:43.565Z,16.90
2023-05-14T16:30:12.309Z,17.00
2023-05-14T16:32:42.067Z,16.90
2023-05-14T16:35:10.937Z,17.00
2023-05-14T16:37:39.372Z,17.00
2023-05-14T16:40:11.195Z,17.10
2023-05-14T16:42:41.532Z,17.10
2023-05-14T16:45:10.637Z,17.00
2023-05-14T16:47:39.142Z,17.00
2023-05-14T16:50:08.243Z,17.10
2023-05-14T16:52:36.623Z,17.20
2023-05-14T16:55:05.368Z,17.20
2023-05-14T16:57:34.322Z,17.20
2023-05-14T17:00:06.280Z,17.20
2023-05-14T17:02:34.823Z,17.30
2023-05-14T17:05:04.049Z,17.20
2023-05-14T17:07:32.634Z,17.20
2023-05-14T17:10:01.305Z,17.30
2023-05-14T17:12:29.940Z,17.20
2023-05-14T17:14:58.422Z,17.30
2023-05-14T17:17:28.332Z,17.30
2023-05-14T17:19:56.881Z,17.30
2023-05-14T17:22:25.707Z,17.30
2023-05-14T17:24:54.385Z,17.30
2023-05-14T17:27:22.791Z,17.40
2023-05-14T17:29:51.272Z,17.40
2023-05-14T17:32:19.811Z,17.40
2023-05-14T17:34:49.584Z,17.40
2023-05-14T17:37:18.043Z,17.30
2023-05-14T17:39:46.596Z,17.30
2023-05-14T17:42:15.054Z,17.20
2023-05-14T17:44:43.792Z,17.10
2023-05-14T17:47:12.323Z,17.00
2023-05-14T17:49:40.768Z,17.10
2023-05-14T17:52:10.660Z,17.10
2023-05-14T17:54:39.060Z,17.20
2023-05-14T17:57:07.603Z,17.20
2023-05-14T17:59:36.370Z,17.20
2023-05-14T18:02:05.742Z,17.20
2023-05-14T18:04:34.187Z,17.30
2023-05-14T18:07:03.288Z,17.30
2023-05-14T18:09:33.107Z,17.20
2023-05-14T18:12:01.637Z,17.10
2023-05-14T18:14:30.125Z,17.00
2023-05-14T18:16:58.707Z,17.00
2023-05-14T18:19:27.126Z,17.00
2023-05-14T18:21:55.779Z,17.10
2023-05-14T18:24:24.283Z,17.10
2023-05-14T18:26:54.245Z,17.10
2023-05-14T18:29:22.732Z,17.20
2023-05-14T18:31:51.277Z,17.20
2023-05-14T18:34:19.762Z,17.20
2023-05-14T18:36:48.380Z,17.20
2023-05-14T18:39:16.935Z,17.20
2023-05-14T18:41:45.480Z,17.20
2023-05-14T18:44:15.429Z,17.20
2023-05-14T18:46:43.981Z,17.20
2023-05-14T18:49:12.500Z,17.20
2023-05-14T18:51:41.012Z,17.20
2023-05-14T18:54:09.475Z,17.20
2023-05-14T18:56:38.818Z,17.20
2023-05-14T18:59:07.260Z,17.20
2023-05-14T19:01:37.214Z,17.20
2023-05-14T19:04:07.425Z,17.20
2023-05-14T19:06:36.266Z,17.10
2023-05-14T19:09:04.854Z,17.10
2023-05-14T19:11:33.352Z,17.10
2023-05-14T19:14:01.924Z,17.10
2023-05-14T19:16:30.448Z,17.10
2023-05-14T19:19:00.519Z,17.10
2023-05-14T19:21:29.044Z,17.10
2023-05-14T19:23:57.768Z,17.10
2023-05-14T19:26:26.340Z,17.10
2023-05-14T19:28:58.568Z,17.10
2023-05-14T19:31:27.102Z,17.10
2023-05-14T19:33:56.057Z,17.20
2023-05-14T19:36:26.006Z,17.10
2023-05-14T19:38:54.463Z,17.10
2023-05-14T19:41:23.131Z,17.20
2023-05-14T19:43:51.620Z,17.10
2023-05-14T19:46:20.086Z,17.10
2023-05-14T19:48:48.630Z,17.10
2023-05-14T19:51:17.120Z,17.10
2023-05-14T19:53:46.897Z,17.10
2023-05-14T19:56:15.697Z,17.10
2023-05-14T19:58:44.321Z,17.10
2023-05-14T20:01:12.949Z,17.10
2023-05-14T20:03:41.458Z,17.00
2023-05-14T20:06:10.057Z,17.00
2023-05-14T20:08:38.558Z,17.00
2023-05-14T20:11:08.408Z,17.00
2023-05-14T20:13:36.910Z,17.00
2023-05-14T20:16:06.036Z,17.00
2023-05-14T20:18:34.699Z,17.00
2023-05-14T20:21:04.006Z,17.00
2023-05-14T20:23:32.563Z,17.00
2023-05-14T20:26:02.027Z,17.00
2023-05-14T20:28:31.909Z,17.00
2023-05-14T20:31:01.209Z,17.00
2023-05-14T20:33:29.726Z,17.00
2023-05-14T20:35:58.154Z,16.90
2023-05-14T20:38:29.416Z,16.90
2023-05-14T20:40:58.035Z,16.90
2023-05-14T20:43:27.496Z,16.90
2023-05-14T20:45:58.223Z,16.90
2023-05-14T20:48:26.707Z,16.90
2023-05-14T20:50:55.256Z,16.90
2023-05-14T20:53:25.392Z,16.90
2023-05-14T20:55:53.838Z,16.80
2023-05-14T20:58:22.327Z,16.80
2023-05-14T21:00:51.044Z,16.90
2023-05-14T21:03:21.133Z,16.90
2023-05-14T21:05:49.737Z,16.90
2023-05-14T21:08:18.068Z,16.70
2023-05-14T21:10:46.598Z,16.70
2023-05-14T21:13:15.096Z,16.50
2023-05-14T21:15:43.483Z,16.50
2023-05-14T21:18:12.322Z,16.50
2023-05-14T21:20:42.324Z,16.50
2023-05-14T21:23:10.806Z,16.50
2023-05-14T21:25:39.246Z,16.50
2023-05-14T21:28:10.303Z,16.50
2023-05-14T21:30:38.867Z,16.50
2023-05-14T21:33:07.511Z,16.50
2023-05-14T21:35:36.151Z,16.50
2023-05-14T21:38:06.065Z,16.60
2023-05-14T21:40:34.617Z,16.50
2023-05-14T21:43:03.807Z,16.60
2023-05-14T21:45:32.415Z,16.50
2023-05-14T21:48:00.914Z,16.50
2023-05-14T21:50:29.446Z,16.50
2023-05-14T21:52:57.880Z,16.50
2023-05-14T21:55:28.123Z,16.40
2023-05-14T21:57:56.812Z,16.40
2023-05-14T22:00:25.289Z,16.30
2023-05-14T22:02:54.052Z,16.30
2023-05-14T22:05:23.049Z,16.30
2023-05-14T22:07:52.171Z,16.20
2023-05-14T22:10:20.736Z,16.20
2023-05-14T22:12:50.562Z,16.20
2023-05-14T22:15:18.964Z,16.20
2023-05-14T22:17:48.189Z,16.20
2023-05-14T22:20:16.772Z,16.20
2023-05-14T22:22:45.230Z,16.20
2023-05-14T22:25:13.563Z,16.20
2023-05-14T22:27:42.037Z,16.20
2023-05-14T22:30:12.423Z,16.20
2023-05-14T22:32:40.911Z,16.20
2023-05-14T22:35:09.866Z,16.20
2023-05-14T22:37:38.452Z,16.20
2023-05-14T22:40:08.900Z,16.20
2023-05-14T22:42:37.462Z,16.20
2023-05-14T22:45:06.337Z,16.20
2023-05-14T22:47:36.303Z,16.20
2023-05-14T22:50:07.477Z,16.20
2023-05-14T22:52:35.850Z,16.20
2023-05-14T22:55:04.655Z,16.20
2023-05-14T22:57:33.315Z,16.20
2023-05-14T23:00:01.841Z,16.30
2023-05-14T23:02:30.326Z,16.30
2023-05-14T23:05:00.106Z,16.30
2023-05-14T23:07:28.636Z,16.20
2023-05-14T23:09:57.166Z,16.20
2023-05-14T23:12:25.620Z,16.20
2023-05-14T23:14:54.083Z,16.20
2023-05-14T23:17:22.730Z,16.20
2023-05-14T23:19:51.413Z,16.20
2023-05-14T23:22:21.583Z,16.20
2023-05-14T23:24:50.000Z,16.10
2023-05-14T23:27:18.546Z,16.20
2023-05-14T23:29:46.943Z,16.20
2023-05-14T23:32:15.431Z,16.20
2023-05-14T23:34:44.510Z,16.20
2023-05-14T23:37:13.635Z,16.20
2023-05-14T23:39:43.620Z,16.20
2023-05-14T23:42:12.038Z,16.20
2023-05-14T23:44:40.462Z,16.30
2023-05-14T23:47:09.307Z,16.30
2023-05-14T23:49:38.007Z,16.30
2023-05-14T23:52:06.587Z,16.30
2023-05-14T23:54:35.063Z,16.30
2023-05-14T23:57:05.551Z,16.30
2023-05-14T23:59:34.052Z,16.30
